Terminal Aerodrome Forecast
Issued by NWS Pueblo, CO

Home | Current Version | Previous Version | Text Only | Print | Product List | Glossary On
Versions: 1 2 3 4 5 6 7 8 9 10 11 12 13 14 15 16 17 18 19 20 21 22 23 24 25 26 27 28 29 30 31 32 33 34 35 36 37 38 39
000
FTUS45 KPUB 020526
TAFCOS
TAF
KCOS 020526Z 0206/0306 30006KT P6SM FEW020 BKN050
     FM020800 VRB05KT P6SM SCT050 BKN140
     FM021100 VRB04KT P6SM SCT020 SCT200
     FM021600 15007KT P6SM SCT200
     FM022000 18008KT P6SM SCT200
     FM030200 VRB05KT P6SM BKN080=

USA.gov is the U.S. government's official web portal to all federal, state and local government web resources and services.